Time;durP1;ratioP1;P1;durP2;ratioP2;P2;SDS_P1;SDS_P2;PMS_P1;PMS_P2;Temp;Humidity;BMP_temperature;BMP_pressure;BME280_temperature;BME280_humidity;BME280_pressure;Samples;Min_cycle;Max_cycle;Signal;HPM_P1;HPM_P2
2021/09/13 00:01:53;;;;;;;8.88;7.03;;;19.10;93.30;;;;;;5083308;28;20046;-72
2021/09/13 00:04:19;;;;;;;9.93;6.65;;;19.20;93.30;;;;;;5069533;28;20121;-72
2021/09/13 00:06:45;;;;;;;8.43;6.15;;;19.10;93.40;;;;;;5048903;28;20510;-72
2021/09/13 00:09:11;;;;;;;9.70;6.22;;;19.10;93.50;;;;;;5049872;28;20075;-73
2021/09/13 00:11:37;;;;;;;8.85;6.53;;;19.10;93.50;;;;;;5051502;28;20029;-73
2021/09/13 00:14:03;;;;;;;14.82;6.82;;;19.10;93.50;;;;;;5051023;28;20403;-72
2021/09/13 00:16:29;;;;;;;8.15;6.45;;;19.00;93.60;;;;;;5051648;28;20021;-72
2021/09/13 00:18:54;;;;;;;10.57;6.50;;;19.00;93.70;;;;;;5050990;28;20040;-72
2021/09/13 00:21:20;;;;;;;11.25;6.20;;;18.90;93.70;;;;;;5051522;28;20040;-72
2021/09/13 00:23:46;;;;;;;9.98;6.40;;;18.90;93.70;;;;;;5050795;28;20032;-72
2021/09/13 00:26:11;;;;;;;8.32;5.57;;;18.90;93.60;;;;;;5051043;28;20086;-72
2021/09/13 00:28:37;;;;;;;7.90;6.25;;;18.90;93.80;;;;;;5050832;28;20363;-72
2021/09/13 00:31:03;;;;;;;8.45;6.72;;;18.80;93.90;;;;;;5050890;28;20139;-72
2021/09/13 00:33:28;;;;;;;9.48;6.35;;;18.80;93.90;;;;;;5051753;28;20106;-72
2021/09/13 00:35:54;;;;;;;10.40;6.60;;;18.80;94.00;;;;;;5051036;28;20451;-72
2021/09/13 00:38:20;;;;;;;10.15;6.72;;;18.80;94.10;;;;;;5051048;28;20037;-72
2021/09/13 00:40:45;;;;;;;8.57;5.90;;;18.80;94.00;;;;;;5050959;28;20492;-72
2021/09/13 00:43:11;;;;;;;8.07;5.88;;;18.80;94.10;;;;;;5050969;28;20356;-72
2021/09/13 00:45:37;;;;;;;7.75;5.97;;;18.80;94.00;;;;;;5050764;28;20056;-72
2021/09/13 00:48:03;;;;;;;10.75;6.22;;;18.80;94.00;;;;;;5050961;28;20060;-73
2021/09/13 00:50:30;;;;;;;9.18;6.53;;;18.90;94.00;;;;;;5049667;28;20017;-72
2021/09/13 00:52:56;;;;;;;10.55;6.50;;;19.00;93.90;;;;;;5049483;28;20032;-72
2021/09/13 00:55:23;;;;;;;8.93;6.20;;;18.90;93.90;;;;;;5049366;28;20025;-72
2021/09/13 00:57:51;;;;;;;8.27;6.30;;;19.20;93.50;;;;;;5049690;28;20388;-72
2021/09/13 01:00:17;;;;;;;8.90;6.25;;;19.10;93.50;;;;;;5050028;28;20025;-72
2021/09/13 01:02:43;;;;;;;10.02;6.93;;;19.00;93.60;;;;;;5051041;28;20479;-72
2021/09/13 01:05:10;;;;;;;10.73;6.57;;;19.00;94.00;;;;;;5050463;28;20465;-72
2021/09/13 01:07:36;;;;;;;8.85;6.00;;;18.90;94.00;;;;;;5049872;28;20444;-73
2021/09/13 01:10:03;;;;;;;9.82;6.43;;;18.80;93.90;;;;;;5049880;28;20056;-72
2021/09/13 01:12:30;;;;;;;9.68;6.00;;;18.60;94.20;;;;;;5049572;28;20036;-72
2021/09/13 01:14:55;;;;;;;9.93;7.03;;;18.50;94.40;;;;;;5050432;28;20021;-72
2021/09/13 01:17:21;;;;;;;9.98;6.60;;;18.50;94.50;;;;;;5050365;28;20040;-72
2021/09/13 01:19:47;;;;;;;10.15;6.63;;;18.50;94.50;;;;;;5050175;28;20033;-72
2021/09/13 01:22:16;;;;;;;10.82;7.20;;;18.50;94.50;;;;;;5050891;28;20588;-73
2021/09/13 01:24:42;;;;;;;9.73;6.35;;;18.50;94.50;;;;;;5053314;28;20045;-72
2021/09/13 01:27:10;;;;;;;8.60;6.15;;;18.60;94.50;;;;;;5054022;28;20044;-73
2021/09/13 01:29:37;;;;;;;9.55;6.43;;;18.80;94.30;;;;;;5053815;28;20503;-72
2021/09/13 01:32:04;;;;;;;7.85;5.88;;;19.00;94.00;;;;;;5054576;28;20408;-72
2021/09/13 01:34:29;;;;;;;10.45;7.13;;;18.90;94.00;;;;;;5054100;28;20048;-72
2021/09/13 01:36:56;;;;;;;8.30;7.05;;;18.80;94.30;;;;;;5053952;28;20051;-72
2021/09/13 01:39:22;;;;;;;11.07;5.82;;;18.70;94.40;;;;;;5054183;28;20025;-73
2021/09/13 01:41:48;;;;;;;9.75;6.28;;;18.70;94.30;;;;;;5054295;28;20029;-72
2021/09/13 01:44:14;;;;;;;13.13;7.28;;;18.80;94.10;;;;;;5053795;28;20082;-72
2021/09/13 01:46:41;;;;;;;11.15;6.78;;;18.80;94.30;;;;;;5053610;28;20044;-72
2021/09/13 01:49:09;;;;;;;9.73;6.90;;;18.80;94.20;;;;;;5053498;28;20047;-72
2021/09/13 01:51:35;;;;;;;10.88;6.93;;;18.90;94.10;;;;;;5051996;28;20100;-72
2021/09/13 01:54:01;;;;;;;9.65;7.15;;;19.00;93.90;;;;;;5049049;28;20434;-72
2021/09/13 01:56:27;;;;;;;8.63;6.45;;;18.90;94.00;;;;;;5051686;28;20013;-72
2021/09/13 01:58:53;;;;;;;9.05;6.35;;;19.00;94.00;;;;;;5051275;28;20025;-73
2021/09/13 02:01:20;;;;;;;12.07;7.82;;;19.10;93.80;;;;;;5048365;28;20036;-72
2021/09/13 02:03:46;;;;;;;10.05;6.68;;;19.10;93.80;;;;;;5052983;28;20479;-72
2021/09/13 02:06:13;;;;;;;8.98;5.97;;;19.10;93.80;;;;;;5051928;28;20399;-72
2021/09/13 02:08:38;;;;;;;9.70;7.15;;;19.00;94.00;;;;;;5051205;28;20033;-72
2021/09/13 02:11:05;;;;;;;9.18;6.80;;;18.70;94.40;;;;;;5051420;28;20040;-72
2021/09/13 02:13:31;;;;;;;10.93;6.57;;;18.60;94.50;;;;;;5051839;28;20036;-72
2021/09/13 02:15:57;;;;;;;7.90;6.65;;;18.60;94.60;;;;;;5050889;28;20055;-72
2021/09/13 02:18:23;;;;;;;11.93;7.38;;;18.50;94.70;;;;;;5051659;28;20514;-72
2021/09/13 02:20:49;;;;;;;8.77;6.43;;;18.50;94.80;;;;;;5052135;28;20021;-72
2021/09/13 02:23:15;;;;;;;7.82;6.25;;;18.50;95.00;;;;;;5053909;28;20380;-72
2021/09/13 02:25:41;;;;;;;7.93;6.63;;;18.50;94.80;;;;;;5053161;28;20017;-73
2021/09/13 02:28:07;;;;;;;9.60;7.85;;;18.40;94.90;;;;;;5035494;28;20352;-72
2021/09/13 02:30:33;;;;;;;10.95;7.38;;;18.40;94.90;;;;;;5053320;28;20036;-72
2021/09/13 02:32:58;;;;;;;9.48;6.78;;;18.40;94.90;;;;;;5049028;28;20025;-72
2021/09/13 02:35:24;;;;;;;10.07;6.90;;;18.50;94.90;;;;;;5052439;28;20030;-72
2021/09/13 02:37:50;;;;;;;10.68;6.30;;;18.50;94.90;;;;;;5051046;28;20025;-72
2021/09/13 02:40:16;;;;;;;7.88;6.15;;;18.50;94.90;;;;;;5052795;28;20027;-72
2021/09/13 02:42:42;;;;;;;14.02;6.60;;;18.70;94.60;;;;;;5053533;28;20049;-73
2021/09/13 02:45:08;;;;;;;8.90;6.30;;;18.70;94.40;;;;;;5053403;28;20037;-72
2021/09/13 02:47:34;;;;;;;10.57;6.90;;;18.60;94.50;;;;;;5052467;28;20039;-72
2021/09/13 02:50:00;;;;;;;10.07;6.45;;;18.70;94.30;;;;;;5053086;28;20108;-72
2021/09/13 02:52:26;;;;;;;13.30;6.57;;;18.80;94.20;;;;;;5052822;28;20475;-72
2021/09/13 02:54:52;;;;;;;9.20;6.45;;;18.80;94.10;;;;;;5034675;28;20098;-73
2021/09/13 02:57:17;;;;;;;10.68;6.88;;;18.70;94.40;;;;;;5053143;28;20025;-73
2021/09/13 02:59:44;;;;;;;11.90;6.35;;;18.80;94.20;;;;;;5051884;28;20052;-72
2021/09/13 03:02:10;;;;;;;8.35;6.72;;;19.00;94.00;;;;;;5049965;28;20029;-72
2021/09/13 03:04:36;;;;;;;9.70;7.15;;;18.90;94.00;;;;;;5042204;28;20049;-72
2021/09/13 03:07:02;;;;;;;9.13;6.93;;;18.80;94.20;;;;;;5044219;28;20040;-73
2021/09/13 03:09:28;;;;;;;11.20;7.13;;;18.60;94.60;;;;;;5042496;28;20052;-73
2021/09/13 03:11:54;;;;;;;8.85;6.55;;;18.50;95.00;;;;;;5041504;28;20072;-73
2021/09/13 03:14:19;;;;;;;9.13;6.45;;;18.30;94.80;;;;;;5044445;28;20514;-72
2021/09/13 03:16:45;;;;;;;9.75;5.65;;;18.30;94.80;;;;;;5043359;28;20104;-73
2021/09/13 03:19:11;;;;;;;10.27;6.65;;;18.20;94.80;;;;;;5044385;28;20028;-73
2021/09/13 03:21:37;;;;;;;11.05;6.57;;;18.20;94.90;;;;;;5045463;28;20037;-72
2021/09/13 03:24:03;;;;;;;9.88;7.40;;;18.10;95.00;;;;;;5047772;28;20048;-72
2021/09/13 03:26:29;;;;;;;8.70;6.43;;;18.10;95.00;;;;;;5047954;28;20094;-73
2021/09/13 03:28:55;;;;;;;11.80;6.88;;;17.90;95.20;;;;;;5047186;28;20056;-72
2021/09/13 03:31:21;;;;;;;9.82;6.47;;;17.70;95.70;;;;;;5047550;28;20135;-73
2021/09/13 03:33:46;;;;;;;11.95;7.38;;;17.70;95.70;;;;;;5047619;28;20028;-73
2021/09/13 03:36:12;;;;;;;10.88;7.70;;;17.60;95.70;;;;;;5048002;28;20031;-73
2021/09/13 03:38:37;;;;;;;10.43;6.57;;;17.90;95.50;;;;;;5047146;28;20483;-72
2021/09/13 03:41:03;;;;;;;11.23;7.63;;;17.70;95.70;;;;;;5047870;28;20120;-72
2021/09/13 03:43:29;;;;;;;9.38;6.53;;;17.70;95.80;;;;;;5044247;28;20459;-73
2021/09/13 03:45:55;;;;;;;10.77;7.25;;;17.50;96.00;;;;;;5026703;28;20040;-72
2021/09/13 03:48:22;;;;;;;9.82;6.65;;;17.40;96.20;;;;;;5042862;28;20033;-73
2021/09/13 03:50:48;;;;;;;10.85;7.57;;;17.60;96.20;;;;;;5047428;28;20070;-73
2021/09/13 03:53:14;;;;;;;9.13;7.07;;;17.70;96.00;;;;;;5047802;28;20124;-73
2021/09/13 03:55:40;;;;;;;10.07;7.40;;;17.80;95.90;;;;;;5044253;28;20072;-73
2021/09/13 03:58:06;;;;;;;10.50;7.35;;;17.80;95.80;;;;;;5042442;28;20432;-72
2021/09/13 04:00:33;;;;;;;9.40;7.68;;;17.70;95.80;;;;;;5043689;28;20061;-73
2021/09/13 04:03:00;;;;;;;9.85;7.30;;;17.70;95.80;;;;;;5040166;28;20037;-73
2021/09/13 04:05:26;;;;;;;10.05;7.32;;;17.60;95.90;;;;;;5043297;28;20119;-73
2021/09/13 04:10:36;;;;;;;10.95;6.80;;;17.50;96.20;;;;;;5044033;28;20505;-73
2021/09/13 04:13:02;;;;;;;12.02;7.40;;;17.50;96.10;;;;;;5036710;28;20033;-72
2021/09/13 04:15:28;;;;;;;9.93;6.57;;;17.50;96.10;;;;;;5033495;28;20022;-72
2021/09/13 04:17:53;;;;;;;7.88;6.63;;;17.30;96.30;;;;;;5042561;28;20087;-73
2021/09/13 04:20:19;;;;;;;9.45;7.07;;;17.20;96.50;;;;;;5042300;28;20033;-72
2021/09/13 04:22:45;;;;;;;13.35;7.47;;;17.10;96.80;;;;;;5043182;28;20095;-72
2021/09/13 04:25:10;;;;;;;12.57;7.57;;;17.10;96.60;;;;;;5043058;28;20029;-73
2021/09/13 04:27:36;;;;;;;11.73;6.60;;;17.20;96.70;;;;;;5044045;28;20087;-72
2021/09/13 04:30:02;;;;;;;9.77;6.90;;;17.30;96.50;;;;;;5043645;28;20134;-72
2021/09/13 04:32:28;;;;;;;11.15;8.07;;;17.30;96.50;;;;;;5043303;28;20106;-72
2021/09/13 04:34:54;;;;;;;11.38;7.57;;;17.40;96.40;;;;;;5043406;28;20476;-73
2021/09/13 04:37:19;;;;;;;9.10;7.72;;;17.40;96.40;;;;;;5044020;28;20041;-73
2021/09/13 04:39:45;;;;;;;15.10;7.43;;;17.40;96.50;;;;;;5043343;28;20481;-72
2021/09/13 04:42:11;;;;;;;10.38;6.97;;;17.40;96.30;;;;;;5044005;28;20065;-73
2021/09/13 04:44:38;;;;;;;10.27;7.03;;;17.40;96.30;;;;;;5043770;28;20025;-72
2021/09/13 04:47:04;;;;;;;12.07;7.72;;;17.50;96.30;;;;;;5038600;28;20029;-73
2021/09/13 04:49:29;;;;;;;10.43;7.22;;;17.40;96.40;;;;;;5042813;28;20052;-72
2021/09/13 04:51:55;;;;;;;8.55;6.63;;;17.20;96.60;;;;;;5040261;28;20118;-73
2021/09/13 04:54:21;;;;;;;11.32;7.80;;;17.20;96.50;;;;;;5041957;28;20033;-72
2021/09/13 04:56:47;;;;;;;9.65;7.00;;;17.20;96.60;;;;;;5044009;28;20021;-73
2021/09/13 04:59:12;;;;;;;13.85;7.50;;;17.10;96.70;;;;;;5044685;28;20033;-72
2021/09/13 05:01:38;;;;;;;11.45;7.25;;;17.20;96.70;;;;;;5044570;28;20119;-72
2021/09/13 05:04:06;;;;;;;13.40;7.22;;;17.10;96.80;;;;;;5044270;28;20395;-72
2021/09/13 05:06:32;;;;;;;8.27;7.13;;;17.20;96.80;;;;;;5045697;28;20033;-72
2021/09/13 05:08:58;;;;;;;11.48;7.78;;;17.30;96.70;;;;;;5045360;28;20032;-73
2021/09/13 05:11:23;;;;;;;11.95;8.43;;;17.30;96.60;;;;;;5038317;28;20025;-73
2021/09/13 05:13:51;;;;;;;11.85;7.88;;;17.20;96.80;;;;;;5046653;28;20033;-73
2021/09/13 05:16:17;;;;;;;11.52;7.95;;;17.30;96.60;;;;;;5042506;28;20116;-73
2021/09/13 05:18:45;;;;;;;9.82;7.45;;;17.30;96.80;;;;;;5040389;28;20108;-72
2021/09/13 05:21:10;;;;;;;13.68;7.70;;;17.20;96.80;;;;;;5044290;28;20064;-73
2021/09/13 05:23:36;;;;;;;11.27;6.68;;;17.30;96.70;;;;;;5045585;28;20048;-72
2021/09/13 05:26:02;;;;;;;10.73;6.72;;;17.30;96.70;;;;;;5038954;28;20483;-73
2021/09/13 05:28:27;;;;;;;11.00;7.25;;;17.30;96.90;;;;;;5044693;28;20087;-72
2021/09/13 05:30:53;;;;;;;10.38;7.85;;;17.20;97.10;;;;;;5045215;28;20029;-73
2021/09/13 05:33:19;;;;;;;12.88;7.70;;;17.10;97.10;;;;;;5047584;28;20021;-72
2021/09/13 05:35:45;;;;;;;11.63;7.75;;;17.20;97.10;;;;;;5046335;28;20078;-72
2021/09/13 05:38:10;;;;;;;9.23;7.00;;;17.10;97.20;;;;;;5042014;28;20033;-74
2021/09/13 05:40:39;;;;;;;15.82;8.02;;;17.30;96.90;;;;;;5042352;28;20533;-74
2021/09/13 05:43:05;;;;;;;10.63;7.82;;;17.50;96.70;;;;;;5040931;28;20033;-74
2021/09/13 05:45:31;;;;;;;12.55;8.00;;;17.60;96.50;;;;;;5045553;28;20479;-74
2021/09/13 05:47:57;;;;;;;12.40;8.02;;;17.60;96.60;;;;;;5046231;28;20029;-74
2021/09/13 05:50:23;;;;;;;9.98;8.15;;;17.50;96.80;;;;;;5043882;28;20033;-74
2021/09/13 05:52:48;;;;;;;9.27;7.65;;;17.30;97.10;;;;;;5044488;28;20108;-74
2021/09/13 05:55:14;;;;;;;9.27;7.63;;;17.30;97.20;;;;;;5044785;28;20063;-73
2021/09/13 05:57:40;;;;;;;13.27;7.18;;;17.40;97.10;;;;;;5047983;28;20036;-74
2021/09/13 06:00:07;;;;;;;9.90;7.32;;;17.40;97.30;;;;;;5046721;28;20060;-73
2021/09/13 06:02:33;;;;;;;11.07;7.35;;;17.40;97.30;;;;;;5041171;28;20090;-74
2021/09/13 06:04:58;;;;;;;9.93;7.78;;;17.30;97.50;;;;;;5042610;28;20053;-73
2021/09/13 06:07:24;;;;;;;10.90;8.27;;;17.30;97.60;;;;;;5042034;28;20045;-73
2021/09/13 06:09:50;;;;;;;9.52;7.40;;;17.40;97.60;;;;;;5041810;28;20108;-73
2021/09/13 06:12:17;;;;;;;10.80;8.32;;;17.40;97.60;;;;;;5046268;28;20055;-73
2021/09/13 06:14:45;;;;;;;11.30;9.40;;;17.40;97.50;;;;;;5045789;28;20664;-73
2021/09/13 06:17:13;;;;;;;10.10;7.75;;;17.50;97.50;;;;;;5043055;28;20070;-73
2021/09/13 06:19:39;;;;;;;10.07;8.13;;;17.50;97.60;;;;;;5042954;28;20033;-73
2021/09/13 06:22:05;;;;;;;12.38;7.72;;;17.60;97.60;;;;;;5044457;28;20037;-73
2021/09/13 06:24:31;;;;;;;10.55;7.70;;;17.70;97.50;;;;;;5044012;28;20036;-73
2021/09/13 06:26:58;;;;;;;10.23;8.00;;;17.70;97.60;;;;;;5045242;28;20116;-73
2021/09/13 06:29:26;;;;;;;9.45;7.85;;;17.70;97.60;;;;;;5039426;28;20371;-73
2021/09/13 06:31:52;;;;;;;10.77;8.85;;;17.60;97.90;;;;;;5045284;28;20418;-73
2021/09/13 06:34:18;;;;;;;10.73;8.50;;;17.50;98.10;;;;;;5044129;28;20828;-73
2021/09/13 06:36:45;;;;;;;12.30;8.52;;;17.50;98.30;;;;;;5044885;28;20108;-73
2021/09/13 06:39:11;;;;;;;10.57;7.93;;;17.60;98.60;;;;;;5045934;28;20029;-73
2021/09/13 06:41:38;;;;;;;12.65;7.93;;;17.60;98.40;;;;;;5046196;28;20112;-73
2021/09/13 06:44:05;;;;;;;10.30;8.48;;;17.70;98.10;;;;;;5044864;28;20075;-73
2021/09/13 06:49:07;;;;;;;13.45;8.80;;;18.00;97.80;;;;;;5044733;28;21646;-73
2021/09/13 06:51:33;;;;;;;13.90;9.10;;;18.10;98.00;;;;;;5026512;28;20029;-73
2021/09/13 06:53:59;;;;;;;13.30;8.60;;;18.10;97.80;;;;;;5041522;28;20033;-74
2021/09/13 06:56:24;;;;;;;24.60;8.52;;;18.10;97.40;;;;;;5042838;28;20020;-74
2021/09/13 06:58:52;;;;;;;13.00;8.30;;;18.10;97.30;;;;;;5051832;28;20532;-74
2021/09/13 07:01:21;;;;;;;13.60;7.88;;;18.40;97.00;;;;;;5044542;28;20041;-74
2021/09/13 07:03:47;;;;;;;17.25;9.00;;;18.80;96.10;;;;;;5038516;28;20029;-74
2021/09/13 07:06:13;;;;;;;22.92;9.02;;;19.40;95.40;;;;;;5044376;28;20148;-74
2021/09/13 07:08:39;;;;;;;18.52;7.70;;;19.70;94.80;;;;;;5045006;28;20065;-75
2021/09/13 07:11:06;;;;;;;11.55;7.50;;;19.50;94.90;;;;;;5044744;28;20040;-74
2021/09/13 07:13:32;;;;;;;12.60;8.27;;;19.00;95.00;;;;;;5038764;28;20021;-74
2021/09/13 07:15:57;;;;;;;44.85;10.55;;;18.70;96.30;;;;;;5044095;28;20121;-74
2021/09/13 07:18:23;;;;;;;52.20;11.43;;;18.70;97.00;;;;;;5044796;28;20211;-74
2021/09/13 07:20:49;;;;;;;21.45;8.80;;;18.80;97.60;;;;;;5037804;28;20452;-74
2021/09/13 07:23:14;;;;;;;11.93;8.10;;;18.80;97.60;;;;;;5043139;28;20033;-76
2021/09/13 07:25:40;;;;;;;13.02;8.63;;;18.90;97.50;;;;;;5044703;28;20510;-75
2021/09/13 07:28:06;;;;;;;11.70;7.75;;;18.90;97.60;;;;;;5035042;28;20076;-76
2021/09/13 07:30:32;;;;;;;13.70;8.55;;;18.80;97.30;;;;;;5044978;28;20093;-76
2021/09/13 07:32:59;;;;;;;10.00;7.80;;;18.80;97.20;;;;;;5045142;28;20032;-76
2021/09/13 07:35:26;;;;;;;9.93;7.72;;;18.80;97.30;;;;;;5043753;28;20050;-76
2021/09/13 07:37:54;;;;;;;41.88;8.98;;;18.90;97.40;;;;;;5044044;28;20056;-76
2021/09/13 07:40:21;;;;;;;11.82;9.18;;;18.90;97.40;;;;;;5044084;28;20085;-76
2021/09/13 07:42:48;;;;;;;10.90;8.75;;;18.90;97.60;;;;;;5044837;28;20067;-76
2021/09/13 07:45:16;;;;;;;13.57;8.80;;;18.90;97.60;;;;;;5043639;28;20036;-76
2021/09/13 07:47:43;;;;;;;10.60;8.27;;;18.80;97.60;;;;;;5044717;28;20479;-76
2021/09/13 07:50:10;;;;;;;11.23;9.05;;;18.90;97.40;;;;;;5027813;28;20029;-76
2021/09/13 07:52:37;;;;;;;11.43;8.50;;;18.90;97.20;;;;;;5049212;28;20032;-76
2021/09/13 07:55:05;;;;;;;17.50;9.55;;;19.00;96.50;;;;;;5043446;28;20032;-75
2021/09/13 07:57:32;;;;;;;12.68;7.78;;;19.20;96.70;;;;;;5043597;28;20013;-76
2021/09/13 07:59:59;;;;;;;13.88;8.65;;;19.30;96.70;;;;;;5042990;28;20025;-76
2021/09/13 08:02:25;;;;;;;15.65;9.25;;;19.40;97.10;;;;;;5042045;28;20118;-76
2021/09/13 08:04:51;;;;;;;12.05;8.68;;;19.40;96.00;;;;;;5042306;28;20055;-76
2021/09/13 08:07:17;;;;;;;13.23;8.23;;;19.30;95.60;;;;;;5040529;28;20040;-76
2021/09/13 08:09:43;;;;;;;15.32;8.40;;;19.40;95.20;;;;;;5042441;28;20032;-76
2021/09/13 08:12:09;;;;;;;11.52;8.70;;;19.50;95.60;;;;;;5042605;28;20415;-76
2021/09/13 08:14:35;;;;;;;10.98;8.10;;;19.60;95.60;;;;;;5043758;28;20107;-76
2021/09/13 08:17:00;;;;;;;13.30;8.82;;;19.60;95.40;;;;;;5044156;28;20387;-76
2021/09/13 08:19:26;;;;;;;12.85;8.63;;;19.70;95.30;;;;;;5043376;28;20562;-76
2021/09/13 08:21:52;;;;;;;12.63;9.20;;;19.70;95.60;;;;;;5044101;28;20045;-76
2021/09/13 08:24:18;;;;;;;13.65;8.65;;;19.90;96.00;;;;;;5041630;28;20029;-75
2021/09/13 08:26:44;;;;;;;10.90;7.32;;;20.00;95.60;;;;;;5043413;28;20032;-76
2021/09/13 08:29:17;;;;;;;13.23;7.05;;;20.10;95.30;;;;;;5042029;28;20025;-76
2021/09/13 08:31:44;;;;;;;10.13;7.60;;;20.10;94.40;;;;;;5042209;28;20049;-76
2021/09/13 08:34:11;;;;;;;13.90;7.93;;;20.10;93.90;;;;;;5041817;28;20052;-76
2021/09/13 08:36:37;;;;;;;10.98;7.95;;;20.10;94.80;;;;;;5041459;28;20037;-76
2021/09/13 08:39:04;;;;;;;10.75;8.25;;;20.20;94.40;;;;;;5041940;28;20017;-76
2021/09/13 08:41:32;;;;;;;12.82;8.15;;;20.20;94.80;;;;;;5041398;28;20135;-76
2021/09/13 08:44:00;;;;;;;14.93;8.20;;;20.30;94.00;;;;;;5042670;28;20025;-76
2021/09/13 08:46:52;;;;;;;11.43;7.32;;;20.40;94.00;;;;;;5025503;28;20025;-76
2021/09/13 08:49:29;;;;;;;14.65;8.35;;;20.50;93.50;;;;;;5043705;28;20013;-76
2021/09/13 08:51:56;;;;;;;12.02;8.57;;;20.50;93.40;;;;;;5043297;28;20021;-76
2021/09/13 08:54:25;;;;;;;12.50;8.02;;;20.50;93.20;;;;;;5043457;28;20383;-76
2021/09/13 08:56:57;;;;;;;12.85;8.20;;;20.60;93.30;;;;;;5037779;28;20024;-76
2021/09/13 08:59:25;;;;;;;14.50;8.13;;;20.80;93.40;;;;;;5046509;28;20036;-76
2021/09/13 09:01:52;;;;;;;10.27;8.02;;;20.90;93.50;;;;;;5042184;28;20029;-76
2021/09/13 09:04:20;;;;;;;12.90;8.23;;;21.60;93.10;;;;;;5045731;28;20021;-76
2021/09/13 09:06:47;;;;;;;12.93;8.32;;;23.50;91.60;;;;;;5006758;28;20175;-76
2021/09/13 09:09:18;;;;;;;10.20;7.55;;;24.00;91.10;;;;;;4999889;28;20108;-76
2021/09/13 09:12:00;;;;;;;8.98;6.72;;;25.70;90.10;;;;;;5006383;28;20034;-76
2021/09/13 09:14:41;;;;;;;11.48;7.63;;;25.00;89.20;;;;;;5006410;28;20112;-76
2021/09/13 09:17:22;;;;;;;11.98;6.93;;;25.90;87.60;;;;;;4999297;28;20524;-76
2021/09/13 09:19:58;;;;;;;15.95;8.48;;;26.50;85.50;;;;;;5002079;28;20140;-76
2021/09/13 09:22:29;;;;;;;10.35;7.50;;;25.70;86.20;;;;;;5004336;28;20041;-76
2021/09/13 09:24:56;;;;;;;14.73;8.18;;;25.00;87.90;;;;;;5005452;28;20380;-76
2021/09/13 09:27:23;;;;;;;20.02;7.80;;;26.40;87.30;;;;;;5005813;28;20037;-76
2021/09/13 09:29:49;;;;;;;14.88;8.07;;;27.30;85.70;;;;;;5005123;28;20627;-78
2021/09/13 09:32:26;;;;;;;12.25;7.13;;;27.60;84.50;;;;;;5002658;28;20029;-76
2021/09/13 09:34:53;;;;;;;10.85;6.85;;;27.70;84.10;;;;;;5004727;28;20034;-77
2021/09/13 09:37:19;;;;;;;16.70;8.00;;;27.80;85.10;;;;;;5003057;28;20033;-74
2021/09/13 09:39:48;;;;;;;11.77;8.02;;;28.40;83.90;;;;;;5000798;28;20026;-74
2021/09/13 09:42:28;;;;;;;13.50;7.50;;;29.30;83.60;;;;;;5001029;28;20038;-74
2021/09/13 09:44:54;;;;;;;16.63;8.18;;;28.40;83.90;;;;;;5001503;28;20026;-74
2021/09/13 09:47:21;;;;;;;11.82;7.93;;;27.50;84.90;;;;;;5009209;28;20431;-74
2021/09/13 09:49:53;;;;;;;12.80;7.57;;;27.70;85.80;;;;;;5009746;28;20095;-74
2021/09/13 09:52:39;;;;;;;11.82;7.70;;;27.00;86.10;;;;;;5009572;28;20091;-74
2021/09/13 09:55:09;;;;;;;9.88;7.50;;;25.30;86.00;;;;;;5009316;28;20033;-74
2021/09/13 09:57:35;;;;;;;9.98;7.82;;;24.00;88.00;;;;;;5009566;28;20051;-74
2021/09/13 10:00:22;;;;;;;10.90;7.78;;;23.40;89.10;;;;;;5008461;28;20046;-74
2021/09/13 10:02:48;;;;;;;14.02;8.07;;;23.00;89.90;;;;;;5008156;28;20038;-74
2021/09/13 10:05:14;;;;;;;12.82;7.47;;;23.00;90.40;;;;;;5022337;28;20140;-74
2021/09/13 10:07:41;;;;;;;11.70;8.13;;;23.20;90.80;;;;;;5046475;28;20104;-74
2021/09/13 10:10:10;;;;;;;26.63;7.57;;;23.50;90.30;;;;;;5045007;28;20463;-74
2021/09/13 10:12:36;;;;;;;119.95;16.60;;;23.60;90.00;;;;;;5045805;28;20128;-74
2021/09/13 10:15:04;;;;;;;10.88;7.63;;;23.70;89.90;;;;;;5048569;28;20086;-74
2021/09/13 10:17:30;;;;;;;64.15;10.15;;;23.80;89.70;;;;;;5049149;28;20036;-74
2021/09/13 10:19:57;;;;;;;18.42;8.90;;;23.70;89.30;;;;;;5048220;28;20082;-74
2021/09/13 10:22:23;;;;;;;21.40;8.18;;;23.70;89.50;;;;;;5047825;28;20043;-75
2021/09/13 10:24:50;;;;;;;15.77;8.27;;;23.60;89.30;;;;;;5047203;28;20421;-74
2021/09/13 10:27:20;;;;;;;11.65;7.60;;;23.50;89.80;;;;;;5043849;28;20032;-74
2021/09/13 10:29:46;;;;;;;18.08;7.35;;;23.60;90.20;;;;;;5048547;28;20029;-74
2021/09/13 10:32:16;;;;;;;13.18;7.28;;;23.90;90.40;;;;;;5045518;28;20021;-74
2021/09/13 10:34:42;;;;;;;10.48;7.05;;;24.10;90.00;;;;;;5047282;28;20488;-75
2021/09/13 10:37:10;;;;;;;9.02;7.38;;;24.30;90.20;;;;;;5047981;28;20036;-74
2021/09/13 10:39:56;;;;;;;11.30;8.05;;;24.30;88.50;;;;;;5048670;28;20025;-74
2021/09/13 10:42:46;;;;;;;15.48;7.65;;;24.50;89.00;;;;;;5044078;28;20048;-75
2021/09/13 10:45:21;;;;;;;18.48;10.55;;;24.50;88.50;;;;;;5047938;28;20147;-74
2021/09/13 10:47:57;;;;;;;11.77;7.00;;;24.30;88.30;;;;;;5048363;28;20121;-74
2021/09/13 10:50:27;;;;;;;44.17;5.45;;;24.50;88.50;;;;;;5048177;28;20112;-74
2021/09/13 10:52:57;;;;;;;5.00;3.95;;;24.60;87.90;;;;;;5048025;28;20063;-74
2021/09/13 10:55:25;;;;;;;12.13;7.22;;;24.30;88.00;;;;;;5040515;28;20490;-74
2021/09/13 10:58:17;;;;;;;9.75;8.13;;;24.50;88.80;;;;;;5047515;28;20024;-74
2021/09/13 11:00:43;;;;;;;15.02;8.48;;;24.90;87.50;;;;;;5038421;28;20044;-74
2021/09/13 11:03:32;;;;;;;22.13;7.78;;;25.00;87.80;;;;;;5040793;28;20033;-73
2021/09/13 11:06:16;;;;;;;11.15;6.95;;;24.80;86.50;;;;;;5042204;28;20037;-73
2021/09/13 11:08:53;;;;;;;13.80;8.65;;;24.70;86.80;;;;;;5040556;28;20021;-73
2021/09/13 11:11:34;;;;;;;11.40;7.28;;;25.00;88.50;;;;;;5047265;28;20021;-73
2021/09/13 11:14:04;;;;;;;11.00;6.82;;;25.20;87.40;;;;;;5047526;28;20021;-72
2021/09/13 11:16:33;;;;;;;10.80;9.77;;;25.30;87.90;;;;;;5040174;28;20032;-72
2021/09/13 11:18:59;;;;;;;9.80;7.80;;;25.20;86.50;;;;;;5029845;28;20021;-73
2021/09/13 11:21:30;;;;;;;9.80;7.38;;;25.20;87.00;;;;;;5047319;28;20044;-73
2021/09/13 11:24:08;;;;;;;10.13;7.45;;;25.30;85.70;;;;;;5047429;28;20025;-73
2021/09/13 11:26:47;;;;;;;13.93;7.22;;;25.30;86.00;;;;;;5039894;28;20471;-72
2021/09/13 11:29:30;;;;;;;11.20;6.47;;;25.50;86.40;;;;;;5047496;28;20062;-73
2021/09/13 11:32:06;;;;;;;11.60;6.45;;;25.50;86.00;;;;;;5045448;28;20828;-74
2021/09/13 11:34:35;;;;;;;12.43;6.55;;;26.00;86.30;;;;;;5030823;28;20040;-73
2021/09/13 11:37:14;;;;;;;12.40;6.03;;;26.00;84.90;;;;;;5043971;28;20024;-73
2021/09/13 11:39:47;;;;;;;10.20;6.70;;;25.70;83.60;;;;;;5041750;28;20564;-74
2021/09/13 11:42:16;;;;;;;8.18;6.55;;;25.60;84.60;;;;;;5042768;28;20037;-73
2021/09/13 11:44:47;;;;;;;7.47;5.43;;;26.00;83.60;;;;;;5043123;28;20035;-73
2021/09/13 11:47:15;;;;;;;10.15;6.38;;;26.10;84.50;;;;;;5042769;28;20040;-73
2021/09/13 11:49:43;;;;;;;8.90;5.82;;;26.50;84.10;;;;;;5042390;28;20039;-73
2021/09/13 11:52:19;;;;;;;8.63;5.85;;;26.30;81.60;;;;;;5043080;28;20048;-74
2021/09/13 11:55:08;;;;;;;9.25;6.57;;;25.90;82.20;;;;;;5040234;28;20028;-74
2021/09/13 11:57:40;;;;;;;9.38;6.57;;;26.30;84.50;;;;;;5043039;28;20032;-73
2021/09/13 12:00:09;;;;;;;10.13;6.00;;;26.80;82.80;;;;;;5044046;28;20835;-73
2021/09/13 12:02:37;;;;;;;13.07;6.13;;;26.50;82.70;;;;;;5043475;28;20075;-73
2021/09/13 12:05:12;;;;;;;6.85;4.85;;;26.20;81.30;;;;;;5039153;28;20491;-73
2021/09/13 12:07:39;;;;;;;8.85;6.22;;;26.30;82.60;;;;;;5042612;28;20051;-73
2021/09/13 12:10:07;;;;;;;10.40;7.18;;;26.60;83.00;;;;;;5042343;28;20035;-73
2021/09/13 12:12:36;;;;;;;11.07;6.60;;;26.90;83.50;;;;;;5043157;28;20074;-73
2021/09/13 12:15:06;;;;;;;12.07;6.45;;;27.00;81.80;;;;;;5043591;28;20100;-73
2021/09/13 12:17:43;;;;;;;11.82;6.63;;;27.00;83.30;;;;;;5043311;28;20049;-73
2021/09/13 12:20:23;;;;;;;10.20;5.28;;;27.10;81.90;;;;;;5043472;28;20064;-73
2021/09/13 12:22:56;;;;;;;9.18;6.05;;;26.80;79.70;;;;;;5043646;28;20041;-73
2021/09/13 12:25:22;;;;;;;8.05;5.63;;;26.50;80.80;;;;;;5043584;28;20534;-73
2021/09/13 12:27:51;;;;;;;10.45;6.07;;;26.70;82.80;;;;;;5043241;28;20627;-73
2021/09/13 12:30:20;;;;;;;11.45;6.72;;;27.00;82.10;;;;;;5043538;28;20040;-73
2021/09/13 12:33:02;;;;;;;9.70;6.03;;;26.70;81.70;;;;;;5043888;28;20858;-73
2021/09/13 12:35:38;;;;;;;8.48;5.57;;;26.80;81.60;;;;;;5037566;28;20041;-73
2021/09/13 12:38:15;;;;;;;11.60;6.28;;;27.00;82.10;;;;;;5043088;28;20514;-73
2021/09/13 12:40:59;;;;;;;11.15;5.22;;;27.00;82.10;;;;;;5043038;28;20053;-73
2021/09/13 12:43:31;;;;;;;11.48;5.95;;;27.30;81.30;;;;;;5035213;28;20041;-73
2021/09/13 12:46:10;;;;;;;9.27;4.90;;;27.30;81.80;;;;;;5043361;28;20025;-74
2021/09/13 12:48:47;;;;;;;17.45;5.47;;;27.30;80.00;;;;;;5036216;28;20430;-73
2021/09/13 12:51:21;;;;;;;7.80;5.43;;;27.40;80.90;;;;;;5042855;28;20035;-73